sensor_id;sensor_type;location;lat;lon;timestamp;P1;durP1;ratioP1;P2;durP2;ratioP2
30874;SDS011;17581;43.222;27.924;2023-04-15T00:00:27;25.08;;;6.47;;
30874;SDS011;17581;43.222;27.924;2023-04-15T00:02:53;26.63;;;5.35;;
30874;SDS011;17581;43.222;27.924;2023-04-15T00:05:19;29.27;;;5.95;;
30874;SDS011;17581;43.222;27.924;2023-04-15T00:07:45;26.35;;;7.50;;
30874;SDS011;17581;43.222;27.924;2023-04-15T00:10:11;23.02;;;6.32;;
30874;SDS011;17581;43.222;27.924;2023-04-15T00:12:38;22.98;;;6.65;;
30874;SDS011;17581;43.222;27.924;2023-04-15T00:15:05;36.45;;;7.07;;
30874;SDS011;17581;43.222;27.924;2023-04-15T00:17:32;22.20;;;6.43;;
30874;SDS011;17581;43.222;27.924;2023-04-15T00:19:57;36.83;;;6.70;;
30874;SDS011;17581;43.222;27.924;2023-04-15T00:22:24;46.10;;;7.72;;
30874;SDS011;17581;43.222;27.924;2023-04-15T00:24:51;40.10;;;8.18;;
30874;SDS011;17581;43.222;27.924;2023-04-15T00:27:17;22.73;;;6.88;;
30874;SDS011;17581;43.222;27.924;2023-04-15T00:29:42;22.00;;;6.78;;
30874;SDS011;17581;43.222;27.924;2023-04-15T00:32:08;25.25;;;5.95;;
30874;SDS011;17581;43.222;27.924;2023-04-15T00:34:33;24.17;;;6.55;;
30874;SDS011;17581;43.222;27.924;2023-04-15T00:36:58;22.75;;;7.25;;
30874;SDS011;17581;43.222;27.924;2023-04-15T00:39:24;26.40;;;7.35;;
30874;SDS011;17581;43.222;27.924;2023-04-15T00:41:50;25.08;;;6.57;;
30874;SDS011;17581;43.222;27.924;2023-04-15T00:44:16;32.65;;;7.82;;
30874;SDS011;17581;43.222;27.924;2023-04-15T00:46:42;37.80;;;8.48;;
30874;SDS011;17581;43.222;27.924;2023-04-15T00:49:09;36.60;;;7.78;;
30874;SDS011;17581;43.222;27.924;2023-04-15T00:51:35;50.13;;;9.00;;
30874;SDS011;17581;43.222;27.924;2023-04-15T00:54:02;36.35;;;8.10;;
30874;SDS011;17581;43.222;27.924;2023-04-15T00:56:28;26.52;;;6.75;;
30874;SDS011;17581;43.222;27.924;2023-04-15T00:58:54;18.73;;;6.43;;
30874;SDS011;17581;43.222;27.924;2023-04-15T01:01:21;70.30;;;11.07;;
30874;SDS011;17581;43.222;27.924;2023-04-15T01:03:49;39.58;;;9.20;;
30874;SDS011;17581;43.222;27.924;2023-04-15T01:06:15;71.43;;;9.55;;
30874;SDS011;17581;43.222;27.924;2023-04-15T01:08:41;29.83;;;8.10;;
30874;SDS011;17581;43.222;27.924;2023-04-15T01:11:07;34.35;;;7.72;;
30874;SDS011;17581;43.222;27.924;2023-04-15T01:13:34;23.38;;;6.72;;
30874;SDS011;17581;43.222;27.924;2023-04-15T01:16:01;26.92;;;7.03;;
30874;SDS011;17581;43.222;27.924;2023-04-15T01:18:27;49.08;;;9.45;;
30874;SDS011;17581;43.222;27.924;2023-04-15T01:20:54;34.33;;;8.93;;
30874;SDS011;17581;43.222;27.924;2023-04-15T01:23:20;40.33;;;8.52;;
30874;SDS011;17581;43.222;27.924;2023-04-15T01:25:48;22.60;;;7.70;;
30874;SDS011;17581;43.222;27.924;2023-04-15T01:28:14;22.88;;;6.63;;
30874;SDS011;17581;43.222;27.924;2023-04-15T01:30:40;55.65;;;7.13;;
30874;SDS011;17581;43.222;27.924;2023-04-15T01:33:06;26.10;;;7.45;;
30874;SDS011;17581;43.222;27.924;2023-04-15T01:35:31;22.80;;;7.10;;
30874;SDS011;17581;43.222;27.924;2023-04-15T01:38:00;33.53;;;6.30;;
30874;SDS011;17581;43.222;27.924;2023-04-15T01:40:31;35.25;;;5.97;;
30874;SDS011;17581;43.222;27.924;2023-04-15T01:42:57;44.03;;;7.47;;
30874;SDS011;17581;43.222;27.924;2023-04-15T01:45:23;66.90;;;10.57;;
30874;SDS011;17581;43.222;27.924;2023-04-15T01:47:48;46.92;;;7.97;;
30874;SDS011;17581;43.222;27.924;2023-04-15T01:50:14;59.25;;;12.38;;
30874;SDS011;17581;43.222;27.924;2023-04-15T01:52:40;50.53;;;8.60;;
30874;SDS011;17581;43.222;27.924;2023-04-15T01:55:05;59.20;;;9.23;;
30874;SDS011;17581;43.222;27.924;2023-04-15T01:57:32;50.00;;;8.02;;
30874;SDS011;17581;43.222;27.924;2023-04-15T01:59:58;35.80;;;7.57;;
30874;SDS011;17581;43.222;27.924;2023-04-15T02:02:24;29.10;;;6.03;;
30874;SDS011;17581;43.222;27.924;2023-04-15T02:04:49;29.50;;;6.95;;
30874;SDS011;17581;43.222;27.924;2023-04-15T02:07:15;31.58;;;6.25;;
30874;SDS011;17581;43.222;27.924;2023-04-15T02:09:40;43.22;;;7.13;;
30874;SDS011;17581;43.222;27.924;2023-04-15T02:12:07;39.15;;;8.02;;
30874;SDS011;17581;43.222;27.924;2023-04-15T02:14:33;32.97;;;7.55;;
30874;SDS011;17581;43.222;27.924;2023-04-15T02:16:59;42.17;;;7.32;;
30874;SDS011;17581;43.222;27.924;2023-04-15T02:19:31;37.55;;;7.68;;
30874;SDS011;17581;43.222;27.924;2023-04-15T02:21:57;40.72;;;9.07;;
30874;SDS011;17581;43.222;27.924;2023-04-15T02:24:22;111.55;;;16.90;;
30874;SDS011;17581;43.222;27.924;2023-04-15T02:26:48;67.70;;;12.82;;
30874;SDS011;17581;43.222;27.924;2023-04-15T02:29:13;55.40;;;10.05;;
30874;SDS011;17581;43.222;27.924;2023-04-15T02:31:38;53.13;;;10.38;;
30874;SDS011;17581;43.222;27.924;2023-04-15T02:34:06;35.30;;;8.73;;
30874;SDS011;17581;43.222;27.924;2023-04-15T02:36:32;44.67;;;7.88;;
30874;SDS011;17581;43.222;27.924;2023-04-15T02:38:58;72.05;;;11.57;;
30874;SDS011;17581;43.222;27.924;2023-04-15T02:41:24;63.70;;;12.55;;
30874;SDS011;17581;43.222;27.924;2023-04-15T02:43:51;49.22;;;8.45;;
30874;SDS011;17581;43.222;27.924;2023-04-15T02:46:17;75.68;;;12.52;;
30874;SDS011;17581;43.222;27.924;2023-04-15T02:48:42;50.17;;;8.88;;
30874;SDS011;17581;43.222;27.924;2023-04-15T02:51:15;54.33;;;10.43;;
30874;SDS011;17581;43.222;27.924;2023-04-15T02:53:43;56.70;;;9.65;;
30874;SDS011;17581;43.222;27.924;2023-04-15T02:56:09;54.45;;;9.60;;
30874;SDS011;17581;43.222;27.924;2023-04-15T02:58:35;43.97;;;12.07;;
30874;SDS011;17581;43.222;27.924;2023-04-15T03:01:01;37.28;;;10.68;;
30874;SDS011;17581;43.222;27.924;2023-04-15T03:03:27;40.72;;;10.90;;
30874;SDS011;17581;43.222;27.924;2023-04-15T03:05:52;37.22;;;8.57;;
30874;SDS011;17581;43.222;27.924;2023-04-15T03:08:18;28.98;;;8.82;;
30874;SDS011;17581;43.222;27.924;2023-04-15T03:10:45;35.85;;;8.80;;
30874;SDS011;17581;43.222;27.924;2023-04-15T03:13:11;46.58;;;9.25;;
30874;SDS011;17581;43.222;27.924;2023-04-15T03:15:36;25.83;;;7.78;;
30874;SDS011;17581;43.222;27.924;2023-04-15T03:18:02;34.28;;;8.82;;
30874;SDS011;17581;43.222;27.924;2023-04-15T03:20:28;37.30;;;8.32;;
30874;SDS011;17581;43.222;27.924;2023-04-15T03:22:53;26.45;;;6.57;;
30874;SDS011;17581;43.222;27.924;2023-04-15T03:25:19;34.95;;;7.60;;
30874;SDS011;17581;43.222;27.924;2023-04-15T03:27:44;55.15;;;9.05;;
30874;SDS011;17581;43.222;27.924;2023-04-15T03:30:10;30.95;;;8.63;;
30874;SDS011;17581;43.222;27.924;2023-04-15T03:32:36;34.03;;;7.55;;
30874;SDS011;17581;43.222;27.924;2023-04-15T03:35:02;35.40;;;7.93;;
30874;SDS011;17581;43.222;27.924;2023-04-15T03:37:27;43.97;;;9.15;;
30874;SDS011;17581;43.222;27.924;2023-04-15T03:39:53;39.53;;;9.05;;
30874;SDS011;17581;43.222;27.924;2023-04-15T03:42:18;48.88;;;9.60;;
30874;SDS011;17581;43.222;27.924;2023-04-15T03:44:43;42.45;;;8.80;;
30874;SDS011;17581;43.222;27.924;2023-04-15T03:47:09;54.60;;;10.85;;
30874;SDS011;17581;43.222;27.924;2023-04-15T03:49:35;39.97;;;8.60;;
30874;SDS011;17581;43.222;27.924;2023-04-15T03:52:01;38.33;;;8.73;;
30874;SDS011;17581;43.222;27.924;2023-04-15T03:54:26;44.70;;;8.45;;
30874;SDS011;17581;43.222;27.924;2023-04-15T03:56:52;50.25;;;9.40;;
30874;SDS011;17581;43.222;27.924;2023-04-15T03:59:17;53.13;;;8.52;;
30874;SDS011;17581;43.222;27.924;2023-04-15T04:01:43;60.60;;;9.80;;
30874;SDS011;17581;43.222;27.924;2023-04-15T04:04:08;54.97;;;8.30;;
30874;SDS011;17581;43.222;27.924;2023-04-15T04:06:33;31.63;;;7.57;;
30874;SDS011;17581;43.222;27.924;2023-04-15T04:08:59;44.78;;;8.55;;
30874;SDS011;17581;43.222;27.924;2023-04-15T04:11:25;61.03;;;9.02;;
30874;SDS011;17581;43.222;27.924;2023-04-15T04:13:52;43.20;;;8.80;;
30874;SDS011;17581;43.222;27.924;2023-04-15T04:16:17;38.22;;;9.13;;
30874;SDS011;17581;43.222;27.924;2023-04-15T04:18:43;49.65;;;9.55;;
30874;SDS011;17581;43.222;27.924;2023-04-15T04:21:08;42.40;;;8.25;;
30874;SDS011;17581;43.222;27.924;2023-04-15T04:23:34;40.70;;;7.93;;
30874;SDS011;17581;43.222;27.924;2023-04-15T04:26:00;23.63;;;6.82;;
30874;SDS011;17581;43.222;27.924;2023-04-15T04:28:25;23.88;;;6.72;;
30874;SDS011;17581;43.222;27.924;2023-04-15T04:30:51;56.38;;;9.98;;
30874;SDS011;17581;43.222;27.924;2023-04-15T04:33:16;46.47;;;8.35;;
30874;SDS011;17581;43.222;27.924;2023-04-15T04:35:42;39.40;;;9.57;;
30874;SDS011;17581;43.222;27.924;2023-04-15T04:38:07;48.20;;;14.00;;
30874;SDS011;17581;43.222;27.924;2023-04-15T04:40:33;37.90;;;9.63;;
30874;SDS011;17581;43.222;27.924;2023-04-15T04:42:58;33.47;;;8.70;;
30874;SDS011;17581;43.222;27.924;2023-04-15T04:45:24;28.63;;;7.45;;
30874;SDS011;17581;43.222;27.924;2023-04-15T04:47:49;39.42;;;7.88;;
30874;SDS011;17581;43.222;27.924;2023-04-15T04:50:15;20.60;;;6.50;;
30874;SDS011;17581;43.222;27.924;2023-04-15T04:52:41;25.13;;;6.97;;
30874;SDS011;17581;43.222;27.924;2023-04-15T04:55:06;24.88;;;7.20;;
30874;SDS011;17581;43.222;27.924;2023-04-15T04:57:32;29.85;;;5.68;;
30874;SDS011;17581;43.222;27.924;2023-04-15T04:59:59;14.70;;;5.85;;
30874;SDS011;17581;43.222;27.924;2023-04-15T05:02:26;38.50;;;6.97;;
30874;SDS011;17581;43.222;27.924;2023-04-15T05:04:51;23.20;;;6.55;;
30874;SDS011;17581;43.222;27.924;2023-04-15T05:07:18;28.08;;;7.63;;
30874;SDS011;17581;43.222;27.924;2023-04-15T05:09:45;37.10;;;11.02;;
30874;SDS011;17581;43.222;27.924;2023-04-15T05:12:10;32.15;;;8.27;;
30874;SDS011;17581;43.222;27.924;2023-04-15T05:14:39;43.13;;;8.57;;
30874;SDS011;17581;43.222;27.924;2023-04-15T05:17:06;29.52;;;7.15;;
30874;SDS011;17581;43.222;27.924;2023-04-15T05:19:32;33.95;;;8.32;;
30874;SDS011;17581;43.222;27.924;2023-04-15T05:21:57;53.45;;;9.10;;
30874;SDS011;17581;43.222;27.924;2023-04-15T05:24:23;33.78;;;7.50;;
30874;SDS011;17581;43.222;27.924;2023-04-15T05:26:48;43.55;;;8.45;;
30874;SDS011;17581;43.222;27.924;2023-04-15T05:29:13;29.77;;;6.97;;
30874;SDS011;17581;43.222;27.924;2023-04-15T05:31:39;34.92;;;7.68;;
30874;SDS011;17581;43.222;27.924;2023-04-15T05:34:05;125.40;;;13.23;;
30874;SDS011;17581;43.222;27.924;2023-04-15T05:36:31;109.93;;;12.55;;
30874;SDS011;17581;43.222;27.924;2023-04-15T05:38:56;38.72;;;8.25;;
30874;SDS011;17581;43.222;27.924;2023-04-15T05:41:22;37.28;;;9.05;;
30874;SDS011;17581;43.222;27.924;2023-04-15T05:43:48;33.88;;;8.38;;
30874;SDS011;17581;43.222;27.924;2023-04-15T05:46:13;46.95;;;8.23;;
30874;SDS011;17581;43.222;27.924;2023-04-15T05:48:39;45.63;;;8.63;;
30874;SDS011;17581;43.222;27.924;2023-04-15T05:51:04;34.20;;;7.25;;
30874;SDS011;17581;43.222;27.924;2023-04-15T05:53:30;45.97;;;8.18;;
30874;SDS011;17581;43.222;27.924;2023-04-15T05:55:56;23.58;;;6.47;;
30874;SDS011;17581;43.222;27.924;2023-04-15T05:58:21;29.83;;;7.60;;
30874;SDS011;17581;43.222;27.924;2023-04-15T06:00:47;21.50;;;7.43;;
30874;SDS011;17581;43.222;27.924;2023-04-15T06:03:12;33.75;;;8.82;;
30874;SDS011;17581;43.222;27.924;2023-04-15T06:05:38;26.92;;;8.77;;
30874;SDS011;17581;43.222;27.924;2023-04-15T06:08:04;31.30;;;9.05;;
30874;SDS011;17581;43.222;27.924;2023-04-15T06:10:30;35.13;;;8.90;;
30874;SDS011;17581;43.222;27.924;2023-04-15T06:13:00;41.65;;;10.32;;
30874;SDS011;17581;43.222;27.924;2023-04-15T06:15:26;34.80;;;10.25;;
30874;SDS011;17581;43.222;27.924;2023-04-15T06:17:51;31.50;;;11.55;;
30874;SDS011;17581;43.222;27.924;2023-04-15T06:20:16;37.90;;;12.80;;
30874;SDS011;17581;43.222;27.924;2023-04-15T06:22:42;23.60;;;12.10;;
30874;SDS011;17581;43.222;27.924;2023-04-15T06:25:08;27.70;;;12.48;;
30874;SDS011;17581;43.222;27.924;2023-04-15T06:27:34;39.58;;;14.50;;
30874;SDS011;17581;43.222;27.924;2023-04-15T06:29:59;29.25;;;14.35;;
30874;SDS011;17581;43.222;27.924;2023-04-15T06:32:24;33.15;;;14.90;;
30874;SDS011;17581;43.222;27.924;2023-04-15T06:34:50;43.85;;;15.88;;
30874;SDS011;17581;43.222;27.924;2023-04-15T06:37:16;42.15;;;15.88;;
30874;SDS011;17581;43.222;27.924;2023-04-15T06:39:41;31.98;;;14.25;;
30874;SDS011;17581;43.222;27.924;2023-04-15T06:42:08;34.38;;;14.75;;
30874;SDS011;17581;43.222;27.924;2023-04-15T06:44:35;33.63;;;14.75;;
30874;SDS011;17581;43.222;27.924;2023-04-15T06:47:01;36.20;;;15.82;;
30874;SDS011;17581;43.222;27.924;2023-04-15T06:49:27;43.33;;;16.90;;
30874;SDS011;17581;43.222;27.924;2023-04-15T06:51:52;29.33;;;16.20;;
30874;SDS011;17581;43.222;27.924;2023-04-15T06:54:18;39.22;;;16.70;;
30874;SDS011;17581;43.222;27.924;2023-04-15T06:56:43;37.53;;;17.55;;
30874;SDS011;17581;43.222;27.924;2023-04-15T06:59:08;43.92;;;16.88;;
30874;SDS011;17581;43.222;27.924;2023-04-15T07:01:34;32.67;;;15.70;;
30874;SDS011;17581;43.222;27.924;2023-04-15T07:03:59;41.45;;;17.33;;
30874;SDS011;17581;43.222;27.924;2023-04-15T07:06:25;41.08;;;16.85;;
30874;SDS011;17581;43.222;27.924;2023-04-15T07:08:51;29.23;;;13.05;;
30874;SDS011;17581;43.222;27.924;2023-04-15T07:11:17;39.17;;;15.52;;
30874;SDS011;17581;43.222;27.924;2023-04-15T07:13:43;32.70;;;13.98;;
30874;SDS011;17581;43.222;27.924;2023-04-15T07:16:08;29.15;;;11.30;;
30874;SDS011;17581;43.222;27.924;2023-04-15T07:18:33;21.85;;;10.80;;
30874;SDS011;17581;43.222;27.924;2023-04-15T07:20:59;24.40;;;11.15;;
30874;SDS011;17581;43.222;27.924;2023-04-15T07:23:24;23.77;;;10.20;;
30874;SDS011;17581;43.222;27.924;2023-04-15T07:25:50;28.15;;;9.07;;
30874;SDS011;17581;43.222;27.924;2023-04-15T07:28:16;17.35;;;8.93;;
30874;SDS011;17581;43.222;27.924;2023-04-15T07:30:41;23.98;;;10.55;;
30874;SDS011;17581;43.222;27.924;2023-04-15T07:33:07;24.67;;;9.00;;
30874;SDS011;17581;43.222;27.924;2023-04-15T07:35:32;25.33;;;8.38;;
30874;SDS011;17581;43.222;27.924;2023-04-15T07:37:58;17.83;;;6.65;;
30874;SDS011;17581;43.222;27.924;2023-04-15T07:40:23;17.27;;;6.07;;
30874;SDS011;17581;43.222;27.924;2023-04-15T07:42:49;19.60;;;6.90;;
30874;SDS011;17581;43.222;27.924;2023-04-15T07:45:15;18.00;;;7.97;;
30874;SDS011;17581;43.222;27.924;2023-04-15T07:47:40;21.88;;;6.55;;
30874;SDS011;17581;43.222;27.924;2023-04-15T07:50:07;17.95;;;7.30;;
30874;SDS011;17581;43.222;27.924;2023-04-15T07:52:34;19.75;;;6.68;;
30874;SDS011;17581;43.222;27.924;2023-04-15T07:55:06;22.50;;;6.80;;
30874;SDS011;17581;43.222;27.924;2023-04-15T07:57:33;17.60;;;6.60;;
30874;SDS011;17581;43.222;27.924;2023-04-15T07:59:59;26.75;;;6.32;;
30874;SDS011;17581;43.222;27.924;2023-04-15T08:02:25;17.83;;;5.15;;
30874;SDS011;17581;43.222;27.924;2023-04-15T08:04:50;23.70;;;6.75;;
30874;SDS011;17581;43.222;27.924;2023-04-15T08:07:17;15.45;;;4.50;;
30874;SDS011;17581;43.222;27.924;2023-04-15T08:09:42;25.60;;;6.95;;
30874;SDS011;17581;43.222;27.924;2023-04-15T08:12:08;40.70;;;9.10;;
30874;SDS011;17581;43.222;27.924;2023-04-15T08:14:36;23.13;;;6.38;;
30874;SDS011;17581;43.222;27.924;2023-04-15T08:17:02;15.98;;;5.25;;
30874;SDS011;17581;43.222;27.924;2023-04-15T08:19:28;22.70;;;4.85;;
30874;SDS011;17581;43.222;27.924;2023-04-15T08:21:54;34.85;;;6.35;;
30874;SDS011;17581;43.222;27.924;2023-04-15T08:24:20;54.33;;;7.57;;
30874;SDS011;17581;43.222;27.924;2023-04-15T08:26:46;43.05;;;7.95;;
30874;SDS011;17581;43.222;27.924;2023-04-15T08:29:11;38.08;;;7.90;;
30874;SDS011;17581;43.222;27.924;2023-04-15T08:31:37;62.15;;;8.43;;
30874;SDS011;17581;43.222;27.924;2023-04-15T08:34:02;40.08;;;8.77;;
30874;SDS011;17581;43.222;27.924;2023-04-15T08:36:28;43.70;;;6.82;;
30874;SDS011;17581;43.222;27.924;2023-04-15T08:38:54;31.65;;;6.55;;
30874;SDS011;17581;43.222;27.924;2023-04-15T08:41:21;43.35;;;6.38;;
30874;SDS011;17581;43.222;27.924;2023-04-15T08:43:51;28.70;;;5.90;;
30874;SDS011;17581;43.222;27.924;2023-04-15T08:46:19;23.63;;;4.40;;
30874;SDS011;17581;43.222;27.924;2023-04-15T08:48:45;21.25;;;5.00;;
30874;SDS011;17581;43.222;27.924;2023-04-15T08:51:12;6.75;;;3.78;;
30874;SDS011;17581;43.222;27.924;2023-04-15T08:53:40;33.97;;;4.15;;
30874;SDS011;17581;43.222;27.924;2023-04-15T08:56:07;88.38;;;9.07;;
30874;SDS011;17581;43.222;27.924;2023-04-15T08:58:34;21.73;;;3.15;;
30874;SDS011;17581;43.222;27.924;2023-04-15T09:01:00;16.05;;;3.92;;
30874;SDS011;17581;43.222;27.924;2023-04-15T09:03:26;8.60;;;3.55;;
30874;SDS011;17581;43.222;27.924;2023-04-15T09:05:52;34.30;;;5.05;;
30874;SDS011;17581;43.222;27.924;2023-04-15T09:08:21;33.70;;;4.60;;
30874;SDS011;17581;43.222;27.924;2023-04-15T09:10:47;15.10;;;3.72;;
30874;SDS011;17581;43.222;27.924;2023-04-15T09:13:13;22.13;;;4.57;;
30874;SDS011;17581;43.222;27.924;2023-04-15T09:15:38;19.88;;;4.22;;
30874;SDS011;17581;43.222;27.924;2023-04-15T09:18:04;23.55;;;5.78;;
30874;SDS011;17581;43.222;27.924;2023-04-15T09:20:38;23.65;;;5.00;;
30874;SDS011;17581;43.222;27.924;2023-04-15T09:23:12;11.02;;;3.75;;
30874;SDS011;17581;43.222;27.924;2023-04-15T09:25:39;21.25;;;4.57;;
30874;SDS011;17581;43.222;27.924;2023-04-15T09:28:09;14.75;;;4.35;;
30874;SDS011;17581;43.222;27.924;2023-04-15T09:30:35;27.88;;;4.90;;
30874;SDS011;17581;43.222;27.924;2023-04-15T09:33:01;19.40;;;4.45;;
30874;SDS011;17581;43.222;27.924;2023-04-15T09:35:32;12.35;;;4.03;;
30874;SDS011;17581;43.222;27.924;2023-04-15T09:38:03;6.85;;;3.45;;
30874;SDS011;17581;43.222;27.924;2023-04-15T09:40:30;24.65;;;4.05;;
30874;SDS011;17581;43.222;27.924;2023-04-15T09:43:03;17.13;;;5.22;;
30874;SDS011;17581;43.222;27.924;2023-04-15T09:45:38;10.20;;;4.55;;
30874;SDS011;17581;43.222;27.924;2023-04-15T09:48:15;10.75;;;3.17;;
30874;SDS011;17581;43.222;27.924;2023-04-15T09:50:42;16.38;;;3.65;;
30874;SDS011;17581;43.222;27.924;2023-04-15T09:53:08;44.80;;;6.63;;
30874;SDS011;17581;43.222;27.924;2023-04-15T09:55:35;8.75;;;2.85;;
30874;SDS011;17581;43.222;27.924;2023-04-15T09:58:01;14.55;;;3.47;;
30874;SDS011;17581;43.222;27.924;2023-04-15T10:00:27;17.20;;;3.20;;
30874;SDS011;17581;43.222;27.924;2023-04-15T10:02:53;7.30;;;3.08;;
30874;SDS011;17581;43.222;27.924;2023-04-15T10:05:19;12.05;;;3.20;;
30874;SDS011;17581;43.222;27.924;2023-04-15T10:07:45;14.88;;;3.97;;
30874;SDS011;17581;43.222;27.924;2023-04-15T10:10:11;13.95;;;3.33;;
30874;SDS011;17581;43.222;27.924;2023-04-15T10:12:37;11.02;;;2.75;;
30874;SDS011;17581;43.222;27.924;2023-04-15T10:15:05;8.18;;;2.67;;
30874;SDS011;17581;43.222;27.924;2023-04-15T10:17:38;9.60;;;3.30;;
30874;SDS011;17581;43.222;27.924;2023-04-15T10:20:08;15.90;;;3.65;;
30874;SDS011;17581;43.222;27.924;2023-04-15T10:22:36;10.05;;;2.42;;
30874;SDS011;17581;43.222;27.924;2023-04-15T10:25:02;19.50;;;3.88;;
30874;SDS011;17581;43.222;27.924;2023-04-15T10:27:28;8.57;;;2.70;;
30874;SDS011;17581;43.222;27.924;2023-04-15T10:29:54;13.82;;;3.10;;
30874;SDS011;17581;43.222;27.924;2023-04-15T10:32:21;10.20;;;2.92;;
30874;SDS011;17581;43.222;27.924;2023-04-15T10:34:49;8.95;;;3.13;;
30874;SDS011;17581;43.222;27.924;2023-04-15T10:37:20;10.82;;;3.38;;
30874;SDS011;17581;43.222;27.924;2023-04-15T10:39:46;12.38;;;3.17;;
30874;SDS011;17581;43.222;27.924;2023-04-15T10:42:13;11.10;;;3.15;;
30874;SDS011;17581;43.222;27.924;2023-04-15T10:44:44;9.23;;;3.25;;
30874;SDS011;17581;43.222;27.924;2023-04-15T10:47:14;10.95;;;3.20;;
30874;SDS011;17581;43.222;27.924;2023-04-15T10:49:48;14.57;;;3.28;;
30874;SDS011;17581;43.222;27.924;2023-04-15T10:52:16;21.48;;;3.08;;
30874;SDS011;17581;43.222;27.924;2023-04-15T10:54:46;6.00;;;2.38;;
30874;SDS011;17581;43.222;27.924;2023-04-15T10:57:16;18.98;;;3.05;;
30874;SDS011;17581;43.222;27.924;2023-04-15T11:02:45;16.30;;;3.10;;
30874;SDS011;17581;43.222;27.924;2023-04-15T11:05:15;8.88;;;2.47;;
30874;SDS011;17581;43.222;27.924;2023-04-15T11:12:45;11.18;;;3.47;;
30874;SDS011;17581;43.222;27.924;2023-04-15T11:17:51;16.60;;;2.67;;
30874;SDS011;17581;43.222;27.924;2023-04-15T11:20:16;12.75;;;3.50;;
30874;SDS011;17581;43.222;27.924;2023-04-15T11:22:52;12.68;;;2.60;;
30874;SDS011;17581;43.222;27.924;2023-04-15T11:25:24;9.43;;;2.60;;
30874;SDS011;17581;43.222;27.924;2023-04-15T11:27:55;3.78;;;2.00;;
30874;SDS011;17581;43.222;27.924;2023-04-15T11:30:22;21.60;;;4.45;;
30874;SDS011;17581;43.222;27.924;2023-04-15T11:32:50;22.67;;;2.92;;
30874;SDS011;17581;43.222;27.924;2023-04-15T11:35:16;7.18;;;2.75;;
30874;SDS011;17581;43.222;27.924;2023-04-15T11:37:43;15.70;;;2.42;;
30874;SDS011;17581;43.222;27.924;2023-04-15T11:40:09;14.88;;;2.83;;
30874;SDS011;17581;43.222;27.924;2023-04-15T11:42:35;43.95;;;3.80;;
30874;SDS011;17581;43.222;27.924;2023-04-15T11:45:10;22.17;;;3.47;;
30874;SDS011;17581;43.222;27.924;2023-04-15T11:47:37;29.90;;;2.25;;
30874;SDS011;17581;43.222;27.924;2023-04-15T11:50:16;10.13;;;2.47;;
30874;SDS011;17581;43.222;27.924;2023-04-15T11:52:56;14.70;;;2.75;;
30874;SDS011;17581;43.222;27.924;2023-04-15T11:55:23;20.70;;;3.13;;
30874;SDS011;17581;43.222;27.924;2023-04-15T11:58:04;7.72;;;1.80;;
30874;SDS011;17581;43.222;27.924;2023-04-15T12:00:32;10.50;;;2.70;;
30874;SDS011;17581;43.222;27.924;2023-04-15T12:03:13;11.70;;;2.30;;
30874;SDS011;17581;43.222;27.924;2023-04-15T12:11:26;12.88;;;2.78;;
30874;SDS011;17581;43.222;27.924;2023-04-15T12:13:57;20.45;;;2.00;;
30874;SDS011;17581;43.222;27.924;2023-04-15T12:16:27;14.57;;;2.77;;
30874;SDS011;17581;43.222;27.924;2023-04-15T12:18:55;7.15;;;1.77;;
30874;SDS011;17581;43.222;27.924;2023-04-15T12:21:23;25.50;;;2.95;;
30874;SDS011;17581;43.222;27.924;2023-04-15T12:23:56;17.52;;;3.15;;
30874;SDS011;17581;43.222;27.924;2023-04-15T12:26:30;16.67;;;2.58;;
30874;SDS011;17581;43.222;27.924;2023-04-15T12:31:27;14.93;;;3.60;;
30874;SDS011;17581;43.222;27.924;2023-04-15T12:33:56;10.43;;;2.85;;
30874;SDS011;17581;43.222;27.924;2023-04-15T12:36:22;14.02;;;2.60;;
30874;SDS011;17581;43.222;27.924;2023-04-15T12:38:48;10.18;;;2.80;;
30874;SDS011;17581;43.222;27.924;2023-04-15T12:41:14;13.98;;;2.90;;
30874;SDS011;17581;43.222;27.924;2023-04-15T12:43:39;18.35;;;2.75;;
30874;SDS011;17581;43.222;27.924;2023-04-15T12:46:05;16.00;;;3.38;;
30874;SDS011;17581;43.222;27.924;2023-04-15T12:48:32;21.10;;;3.72;;
30874;SDS011;17581;43.222;27.924;2023-04-15T12:50:58;26.45;;;5.20;;
30874;SDS011;17581;43.222;27.924;2023-04-15T12:53:23;12.13;;;2.47;;
30874;SDS011;17581;43.222;27.924;2023-04-15T12:55:50;13.73;;;2.85;;
30874;SDS011;17581;43.222;27.924;2023-04-15T12:58:16;23.38;;;3.20;;
30874;SDS011;17581;43.222;27.924;2023-04-15T13:00:41;16.38;;;2.90;;
30874;SDS011;17581;43.222;27.924;2023-04-15T13:03:07;11.13;;;2.95;;
30874;SDS011;17581;43.222;27.924;2023-04-15T13:05:32;16.23;;;2.50;;
30874;SDS011;17581;43.222;27.924;2023-04-15T13:07:58;30.35;;;4.38;;
30874;SDS011;17581;43.222;27.924;2023-04-15T13:10:23;10.43;;;2.17;;
30874;SDS011;17581;43.222;27.924;2023-04-15T13:12:49;29.40;;;3.28;;
30874;SDS011;17581;43.222;27.924;2023-04-15T13:15:17;14.38;;;3.42;;
30874;SDS011;17581;43.222;27.924;2023-04-15T13:17:44;8.45;;;2.35;;
30874;SDS011;17581;43.222;27.924;2023-04-15T13:20:10;7.05;;;1.77;;
30874;SDS011;17581;43.222;27.924;2023-04-15T13:22:36;23.05;;;3.30;;
30874;SDS011;17581;43.222;27.924;2023-04-15T13:25:01;11.90;;;3.22;;
30874;SDS011;17581;43.222;27.924;2023-04-15T13:27:27;9.50;;;2.70;;
30874;SDS011;17581;43.222;27.924;2023-04-15T13:29:52;5.05;;;1.88;;
30874;SDS011;17581;43.222;27.924;2023-04-15T13:32:18;9.20;;;2.65;;
30874;SDS011;17581;43.222;27.924;2023-04-15T13:34:44;12.13;;;2.60;;
30874;SDS011;17581;43.222;27.924;2023-04-15T13:37:09;8.57;;;3.00;;
30874;SDS011;17581;43.222;27.924;2023-04-15T13:39:35;19.08;;;2.95;;
30874;SDS011;17581;43.222;27.924;2023-04-15T13:42:00;40.33;;;3.13;;
30874;SDS011;17581;43.222;27.924;2023-04-15T13:44:26;10.18;;;2.78;;
30874;SDS011;17581;43.222;27.924;2023-04-15T13:46:52;12.25;;;2.63;;
30874;SDS011;17581;43.222;27.924;2023-04-15T13:49:18;24.48;;;3.45;;
30874;SDS011;17581;43.222;27.924;2023-04-15T13:51:43;11.90;;;2.65;;
30874;SDS011;17581;43.222;27.924;2023-04-15T13:54:08;15.63;;;2.85;;
30874;SDS011;17581;43.222;27.924;2023-04-15T13:56:34;22.25;;;3.83;;
30874;SDS011;17581;43.222;27.924;2023-04-15T13:59:00;11.70;;;2.53;;
30874;SDS011;17581;43.222;27.924;2023-04-15T14:01:26;21.45;;;3.00;;
30874;SDS011;17581;43.222;27.924;2023-04-15T14:03:52;27.88;;;3.45;;
30874;SDS011;17581;43.222;27.924;2023-04-15T14:06:17;12.63;;;3.05;;
30874;SDS011;17581;43.222;27.924;2023-04-15T14:08:43;16.95;;;2.72;;
30874;SDS011;17581;43.222;27.924;2023-04-15T14:11:08;21.38;;;3.53;;
30874;SDS011;17581;43.222;27.924;2023-04-15T14:13:34;16.30;;;2.97;;
30874;SDS011;17581;43.222;27.924;2023-04-15T14:16:00;9.43;;;2.63;;
30874;SDS011;17581;43.222;27.924;2023-04-15T14:18:26;12.82;;;2.42;;
30874;SDS011;17581;43.222;27.924;2023-04-15T14:20:51;10.88;;;2.03;;
30874;SDS011;17581;43.222;27.924;2023-04-15T14:23:17;13.13;;;3.00;;
30874;SDS011;17581;43.222;27.924;2023-04-15T14:25:42;7.38;;;2.72;;
30874;SDS011;17581;43.222;27.924;2023-04-15T14:28:08;14.02;;;3.88;;
30874;SDS011;17581;43.222;27.924;2023-04-15T14:30:33;18.65;;;3.03;;
30874;SDS011;17581;43.222;27.924;2023-04-15T14:32:59;8.73;;;2.45;;
30874;SDS011;17581;43.222;27.924;2023-04-15T14:35:25;12.32;;;3.00;;